createdAt,value
2018-02-23T00:01:15.012Z,36.70
2018-02-23T00:03:43.284Z,35.03
2018-02-23T00:06:11.583Z,35.77
2018-02-23T00:08:39.848Z,32.90
2018-02-23T00:11:08.111Z,38.03
2018-02-23T00:13:36.384Z,35.27
2018-02-23T00:16:04.656Z,35.27
2018-02-23T00:18:32.945Z,34.63
2018-02-23T00:21:01.214Z,40.30
2018-02-23T00:23:29.492Z,34.63
2018-02-23T00:25:57.766Z,32.57
2018-02-23T00:28:26.824Z,33.13
2018-02-23T00:30:55.106Z,32.33
2018-02-23T00:33:23.406Z,36.23
2018-02-23T00:35:51.662Z,33.93
2018-02-23T00:38:19.930Z,30.47
2018-02-23T00:40:48.223Z,34.20
2018-02-23T00:43:16.583Z,33.47
2018-02-23T00:45:44.854Z,32.33
2018-02-23T00:48:13.126Z,32.93
2018-02-23T00:50:41.396Z,29.10
2018-02-23T00:53:09.670Z,29.83
2018-02-23T00:55:37.947Z,30.93
2018-02-23T00:58:06.218Z,34.40
2018-02-23T01:00:34.499Z,33.90
2018-02-23T01:03:02.775Z,29.63
2018-02-23T01:05:31.083Z,32.03
2018-02-23T01:07:59.413Z,30.73
2018-02-23T01:10:28.424Z,30.53
2018-02-23T01:12:56.700Z,38.10
2018-02-23T01:15:24.970Z,33.23
2018-02-23T01:17:53.229Z,31.40
2018-02-23T01:20:21.516Z,31.57
2018-02-23T01:22:49.806Z,29.93
2018-02-23T01:25:18.086Z,31.50
2018-02-23T01:27:46.338Z,30.10
2018-02-23T01:30:14.643Z,31.40
2018-02-23T01:32:42.906Z,34.00
2018-02-23T01:35:11.176Z,31.07
2018-02-23T01:37:39.423Z,31.10
2018-02-23T01:40:08.550Z,35.30
2018-02-23T01:42:36.833Z,31.43
2018-02-23T01:45:05.119Z,32.97
2018-02-23T01:47:33.420Z,36.73
2018-02-23T01:50:02.523Z,33.17
2018-02-23T01:52:31.571Z,32.33
2018-02-23T01:54:59.850Z,37.07
2018-02-23T01:57:28.134Z,31.90
2018-02-23T01:59:56.543Z,37.03
2018-02-23T02:02:25.704Z,32.00
2018-02-23T02:04:53.965Z,33.47
2018-02-23T02:07:22.247Z,28.30
2018-02-23T02:09:50.514Z,35.10
2018-02-23T02:12:18.890Z,32.80
2018-02-23T02:14:47.176Z,32.90
2018-02-23T02:17:15.434Z,32.47
2018-02-23T02:19:43.688Z,29.30
2018-02-23T02:22:11.955Z,30.77
2018-02-23T02:24:40.215Z,33.83
2018-02-23T02:27:09.253Z,31.33
2018-02-23T02:29:37.568Z,30.80
2018-02-23T02:32:05.852Z,30.40
2018-02-23T02:34:34.907Z,34.07
2018-02-23T02:37:03.204Z,38.40
2018-02-23T02:39:31.724Z,32.60
2018-02-23T02:42:00.163Z,33.60
2018-02-23T02:44:28.457Z,29.77
2018-02-23T02:46:57.499Z,30.47
2018-02-23T02:49:25.806Z,31.43
2018-02-23T02:51:54.071Z,34.97
2018-02-23T02:54:22.347Z,32.47
2018-02-23T02:56:50.629Z,33.63
2018-02-23T02:59:19.095Z,32.23
2018-02-23T03:01:47.374Z,32.20
2018-02-23T03:04:15.660Z,30.60
2018-02-23T03:06:44.011Z,34.10
2018-02-23T03:09:12.283Z,34.60
2018-02-23T03:11:40.553Z,33.00
2018-02-23T03:14:08.807Z,36.27
2018-02-23T03:16:37.070Z,35.10
2018-02-23T03:19:06.127Z,30.37
2018-02-23T03:21:34.371Z,35.53
2018-02-23T03:24:02.683Z,34.10
2018-02-23T03:26:30.941Z,35.47
2018-02-23T03:28:59.221Z,34.23
2018-02-23T03:31:27.503Z,36.73
2018-02-23T03:33:55.799Z,34.17
2018-02-23T03:36:24.833Z,37.50
2018-02-23T03:38:53.127Z,32.50
2018-02-23T03:41:21.388Z,35.27
2018-02-23T03:43:49.701Z,35.57
2018-02-23T03:46:19.523Z,37.50
2018-02-23T03:48:47.780Z,39.00
2018-02-23T03:51:16.836Z,39.10
2018-02-23T03:53:45.096Z,38.10
2018-02-23T03:56:13.442Z,40.53
2018-02-23T03:58:41.710Z,38.20
2018-02-23T04:01:09.996Z,39.83
2018-02-23T04:03:38.279Z,41.33
2018-02-23T04:06:07.354Z,40.17
2018-02-23T04:08:35.625Z,42.93
2018-02-23T04:11:03.917Z,38.17
2018-02-23T04:13:32.155Z,39.70
2018-02-23T04:16:00.464Z,41.50
2018-02-23T04:18:28.707Z,42.83
2018-02-23T04:20:56.998Z,37.10
2018-02-23T04:23:26.767Z,39.13
2018-02-23T04:25:55.052Z,42.87
2018-02-23T04:28:23.340Z,44.87
2018-02-23T04:30:51.639Z,43.70
2018-02-23T04:33:20.007Z,42.30
2018-02-23T04:35:48.450Z,41.20
2018-02-23T04:38:16.762Z,42.37
2018-02-23T04:40:45.062Z,42.97
2018-02-23T04:43:14.102Z,44.87
2018-02-23T04:45:42.492Z,42.37
2018-02-23T04:48:10.771Z,44.17
2018-02-23T04:50:39.034Z,43.70
2018-02-23T04:53:07.402Z,40.93
2018-02-23T04:55:35.683Z,37.03
2018-02-23T04:58:03.943Z,45.33
2018-02-23T05:00:32.231Z,43.70
2018-02-23T05:03:00.699Z,45.40
2018-02-23T05:05:29.063Z,42.90
2018-02-23T05:07:57.339Z,44.50
2018-02-23T05:10:26.358Z,44.87
2018-02-23T05:12:54.751Z,46.53
2018-02-23T05:15:23.069Z,43.33
2018-02-23T05:17:51.362Z,44.30
2018-02-23T05:20:19.662Z,43.00
2018-02-23T05:22:47.919Z,42.37
2018-02-23T05:25:16.197Z,43.80
2018-02-23T05:27:44.540Z,45.23
2018-02-23T05:30:12.790Z,43.10
2018-02-23T05:32:41.058Z,44.70
2018-02-23T05:35:09.365Z,45.80
2018-02-23T05:37:38.486Z,48.70
2018-02-23T05:40:06.790Z,45.60
2018-02-23T05:42:35.153Z,47.10
2018-02-23T05:45:03.568Z,46.33
2018-02-23T05:47:31.860Z,44.50
2018-02-23T05:50:00.920Z,50.77
2018-02-23T05:52:29.241Z,48.43
2018-02-23T05:54:57.519Z,50.73
2018-02-23T05:57:25.801Z,47.60
2018-02-23T05:59:54.070Z,49.63
2018-02-23T06:02:22.355Z,49.93
2018-02-23T06:04:50.647Z,47.07
2018-02-23T06:07:18.972Z,54.03
2018-02-23T06:09:48.054Z,49.57
2018-02-23T06:12:16.499Z,52.00
2018-02-23T06:14:44.751Z,51.83
2018-02-23T06:17:13.218Z,49.27
2018-02-23T06:19:42.275Z,48.17
2018-02-23T06:22:11.440Z,54.07
2018-02-23T06:24:39.696Z,54.73
2018-02-23T06:27:07.959Z,55.10
2018-02-23T06:29:36.259Z,54.13
2018-02-23T06:32:04.530Z,55.03
2018-02-23T06:34:32.798Z,57.37
2018-02-23T06:37:01.172Z,54.83
2018-02-23T06:39:29.460Z,52.50
2018-02-23T06:41:57.903Z,55.50
2018-02-23T06:44:27.336Z,50.50
2018-02-23T06:46:56.506Z,52.50
2018-02-23T06:49:24.811Z,58.03
2018-02-23T06:51:53.083Z,52.87
2018-02-23T06:54:21.400Z,53.33
2018-02-23T06:56:49.877Z,59.63
2018-02-23T06:59:18.132Z,55.50
2018-02-23T07:01:47.234Z,48.87
2018-02-23T07:04:15.550Z,56.50
2018-02-23T07:06:43.817Z,56.73
2018-02-23T07:09:12.998Z,49.03
2018-02-23T07:11:41.300Z,53.23
2018-02-23T07:14:10.350Z,51.67
2018-02-23T07:16:38.819Z,50.90
2018-02-23T07:19:07.813Z,51.77
2018-02-23T07:21:36.083Z,44.47
2018-02-23T07:24:04.363Z,47.63
2018-02-23T07:26:32.802Z,43.90
2018-02-23T07:29:01.070Z,46.33
2018-02-23T07:31:30.119Z,44.00
2018-02-23T07:33:58.436Z,43.37
2018-02-23T07:36:26.897Z,45.70
2018-02-23T07:38:55.180Z,41.27
2018-02-23T07:41:24.314Z,43.43
2018-02-23T07:43:52.756Z,40.57
2018-02-23T07:46:20.996Z,36.80
2018-02-23T07:48:49.272Z,40.67
2018-02-23T07:51:17.525Z,40.57
2018-02-23T07:53:45.776Z,33.73
2018-02-23T07:56:14.095Z,34.07
2018-02-23T07:58:42.366Z,32.23
2018-02-23T08:01:10.671Z,33.53
2018-02-23T08:03:39.076Z,30.83
2018-02-23T08:06:07.352Z,29.80
2018-02-23T08:08:35.654Z,24.73
2018-02-23T08:11:03.897Z,22.23
2018-02-23T08:13:32.960Z,23.57
2018-02-23T08:16:01.236Z,24.17
2018-02-23T08:18:29.516Z,20.83
2018-02-23T08:20:57.880Z,23.83
2018-02-23T08:23:27.663Z,23.13
2018-02-23T08:25:55.949Z,21.27
2018-02-23T08:28:24.177Z,19.50
2018-02-23T08:30:53.226Z,20.80
2018-02-23T08:33:21.487Z,18.60
2018-02-23T08:35:49.806Z,16.97
2018-02-23T08:38:18.060Z,15.67
2018-02-23T08:40:46.356Z,16.10
2018-02-23T08:43:14.592Z,17.17
2018-02-23T08:45:42.857Z,13.90
2018-02-23T08:48:11.127Z,16.40
2018-02-23T08:50:39.403Z,15.87
2018-02-23T08:53:07.728Z,12.77
2018-02-23T08:55:35.979Z,11.33
2018-02-23T08:58:04.270Z,12.40
2018-02-23T09:00:44.354Z,13.10
2018-02-23T09:03:13.514Z,10.03
2018-02-23T09:05:41.778Z,8.53
2018-02-23T09:08:10.056Z,9.77
2018-02-23T09:10:38.287Z,12.17
2018-02-23T09:13:06.705Z,9.83
2018-02-23T09:15:34.972Z,11.13
2018-02-23T09:18:03.244Z,8.97
2018-02-23T09:20:31.614Z,10.63
2018-02-23T09:22:59.913Z,12.03
2018-02-23T09:25:28.160Z,11.10
2018-02-23T09:27:56.419Z,13.20
2018-02-23T09:30:24.679Z,12.63
2018-02-23T09:32:56.906Z,9.93
2018-02-23T09:35:25.199Z,10.50
2018-02-23T09:37:53.633Z,11.17
2018-02-23T09:40:22.022Z,13.67
2018-02-23T09:42:50.302Z,13.10
2018-02-23T09:45:18.590Z,8.23
2018-02-23T09:47:46.831Z,12.43
2018-02-23T09:50:15.171Z,11.37
2018-02-23T09:52:43.350Z,10.43
2018-02-23T09:55:11.640Z,12.20
2018-02-23T09:57:40.023Z,11.47
2018-02-23T10:00:08.291Z,9.50
2018-02-23T10:02:36.527Z,12.50
2018-02-23T10:05:05.086Z,11.23
2018-02-23T10:07:33.380Z,10.20
2018-02-23T10:10:01.643Z,11.03
2018-02-23T10:12:29.883Z,10.47
2018-02-23T10:14:58.159Z,11.20
2018-02-23T10:17:26.636Z,11.00
2018-02-23T10:19:54.846Z,10.83
2018-02-23T10:22:23.132Z,12.07
2018-02-23T10:24:51.397Z,12.17
2018-02-23T10:27:19.671Z,11.00
2018-02-23T10:29:47.923Z,10.13
2018-02-23T10:32:16.436Z,11.03
2018-02-23T10:34:44.680Z,11.50
2018-02-23T10:37:12.954Z,9.80
2018-02-23T10:39:41.224Z,8.87
2018-02-23T10:42:09.499Z,11.60
2018-02-23T10:44:37.752Z,12.23
2018-02-23T10:47:06.101Z,11.47
2018-02-23T10:49:34.283Z,10.03
2018-02-23T10:52:02.578Z,10.57
2018-02-23T10:54:30.836Z,12.73
2018-02-23T10:56:59.861Z,11.40
2018-02-23T10:59:28.126Z,10.60
2018-02-23T11:01:56.440Z,11.37
2018-02-23T11:04:24.708Z,10.13
2018-02-23T11:06:53.045Z,10.93
2018-02-23T11:09:21.314Z,10.03
2018-02-23T11:11:49.587Z,10.97
2018-02-23T11:14:18.034Z,10.47
2018-02-23T11:16:46.299Z,13.57
2018-02-23T11:19:14.722Z,11.20
2018-02-23T11:21:42.995Z,13.40
2018-02-23T11:24:11.266Z,8.67
2018-02-23T11:26:39.547Z,12.67
2018-02-23T11:29:08.046Z,9.87
2018-02-23T11:31:36.311Z,9.50
2018-02-23T11:34:04.649Z,14.10
2018-02-23T11:36:33.126Z,12.30
2018-02-23T11:39:01.388Z,9.40
2018-02-23T11:41:29.940Z,12.13
2018-02-23T11:43:58.233Z,14.13
2018-02-23T11:46:26.528Z,10.67
2018-02-23T11:48:54.770Z,9.97
2018-02-23T11:51:23.024Z,12.13
2018-02-23T11:53:51.280Z,12.93
2018-02-23T11:56:19.616Z,11.00
2018-02-23T11:58:47.906Z,9.53
2018-02-23T12:01:16.966Z,13.33
2018-02-23T12:03:45.261Z,13.90
2018-02-23T12:06:13.495Z,11.73
2018-02-23T12:08:41.808Z,13.23
2018-02-23T12:11:10.142Z,13.60
2018-02-23T12:13:38.672Z,12.50
2018-02-23T12:16:07.064Z,14.27
2018-02-23T12:18:35.303Z,12.30
2018-02-23T12:21:03.550Z,11.57
2018-02-23T12:23:31.878Z,10.47
2018-02-23T12:26:00.126Z,11.47
2018-02-23T12:28:28.375Z,9.40
2018-02-23T12:30:56.726Z,10.83
2018-02-23T12:33:25.740Z,11.57
2018-02-23T12:35:53.990Z,9.10
2018-02-23T12:38:23.166Z,10.37
2018-02-23T12:40:51.435Z,12.53
2018-02-23T12:43:19.718Z,10.70
2018-02-23T12:45:48.777Z,11.83
2018-02-23T12:48:17.140Z,12.47
2018-02-23T12:50:45.416Z,10.33
2018-02-23T12:53:13.711Z,10.23
2018-02-23T12:55:41.982Z,8.03
2018-02-23T12:58:10.220Z,10.40
2018-02-23T13:00:38.522Z,11.27
2018-02-23T13:03:06.776Z,12.10
2018-02-23T13:05:35.051Z,11.20
2018-02-23T13:08:03.322Z,12.10
2018-02-23T13:10:31.815Z,11.93
2018-02-23T13:13:00.254Z,8.57
2018-02-23T13:15:29.152Z,10.77
2018-02-23T13:17:58.169Z,13.13
2018-02-23T13:20:26.427Z,10.23
2018-02-23T13:22:55.477Z,11.33
2018-02-23T13:25:23.735Z,11.50
2018-02-23T13:27:52.010Z,10.40
2018-02-23T13:30:20.283Z,14.07
2018-02-23T13:32:48.657Z,11.67
2018-02-23T13:35:17.020Z,10.37
2018-02-23T13:37:45.310Z,12.40
2018-02-23T13:40:13.551Z,10.90
2018-02-23T13:42:42.582Z,11.67
2018-02-23T13:45:10.860Z,11.87
2018-02-23T13:47:39.143Z,13.10
2018-02-23T13:50:07.398Z,13.50
2018-02-23T13:52:35.668Z,18.23
2018-02-23T13:55:03.974Z,14.03
2018-02-23T13:57:32.189Z,12.90
2018-02-23T14:00:01.211Z,15.93
2018-02-23T14:02:29.520Z,11.67
2018-02-23T14:04:57.818Z,13.63
2018-02-23T14:07:26.830Z,12.97
2018-02-23T14:09:55.084Z,16.70
2018-02-23T14:12:24.107Z,12.17
2018-02-23T14:14:52.422Z,22.77
2018-02-23T14:17:20.695Z,17.03
2018-02-23T14:19:48.976Z,14.53
2018-02-23T14:22:17.282Z,13.57
2018-02-23T14:24:45.527Z,14.40
2018-02-23T14:27:13.974Z,12.57
2018-02-23T14:29:42.426Z,10.40
2018-02-23T14:32:10.695Z,12.63
2018-02-23T14:34:39.728Z,13.70
2018-02-23T14:37:08.639Z,13.70
2018-02-23T14:39:37.114Z,12.00
2018-02-23T14:42:05.392Z,12.20
2018-02-23T14:44:33.647Z,13.33
2018-02-23T14:47:01.935Z,15.10
2018-02-23T14:49:30.172Z,13.27
2018-02-23T14:51:58.440Z,14.10
2018-02-23T14:54:26.714Z,15.87
2018-02-23T14:56:55.527Z,13.17
2018-02-23T14:59:23.819Z,13.30
2018-02-23T15:01:53.708Z,11.57
2018-02-23T15:04:21.991Z,12.30
2018-02-23T15:06:50.383Z,12.67
2018-02-23T15:09:18.647Z,12.80
2018-02-23T15:11:47.138Z,14.27
2018-02-23T15:14:15.406Z,14.07
2018-02-23T15:16:44.489Z,12.20
2018-02-23T15:19:12.796Z,12.40
2018-02-23T15:21:41.069Z,12.97
2018-02-23T15:24:10.146Z,16.43
2018-02-23T15:26:38.412Z,12.20
2018-02-23T15:29:06.848Z,12.83
2018-02-23T15:31:47.844Z,15.63
2018-02-23T15:34:16.856Z,12.27
2018-02-23T15:36:45.140Z,11.43
2018-02-23T15:39:13.440Z,11.97
2018-02-23T15:41:41.689Z,13.40
2018-02-23T15:44:10.139Z,12.53
2018-02-23T15:46:38.431Z,12.83
2018-02-23T15:49:06.760Z,17.37
2018-02-23T15:51:35.051Z,17.23
2018-02-23T15:54:03.372Z,12.37
2018-02-23T15:56:32.427Z,15.23
2018-02-23T15:59:00.686Z,14.50
2018-02-23T16:01:29.720Z,15.57
2018-02-23T16:03:58.011Z,12.63
2018-02-23T16:06:26.256Z,16.27
2018-02-23T16:08:54.565Z,12.73
2018-02-23T16:11:22.824Z,14.00
2018-02-23T16:13:51.108Z,16.97
2018-02-23T16:16:19.359Z,15.20
2018-02-23T16:18:47.603Z,14.87
2018-02-23T16:21:15.880Z,13.97
2018-02-23T16:23:44.897Z,15.23
2018-02-23T16:26:13.232Z,46.50
2018-02-23T16:28:41.495Z,14.27
2018-02-23T16:31:11.422Z,12.70
2018-02-23T16:33:39.720Z,12.33
2018-02-23T16:36:08.073Z,13.77
2018-02-23T16:38:36.299Z,14.23
2018-02-23T16:41:04.629Z,14.53
2018-02-23T16:43:32.966Z,11.87
2018-02-23T16:46:01.224Z,15.43
2018-02-23T16:48:29.499Z,12.03
2018-02-23T16:50:57.755Z,12.07
2018-02-23T16:53:26.055Z,12.90
2018-02-23T16:55:54.318Z,14.03
2018-02-23T16:58:22.563Z,14.17
2018-02-23T17:00:51.596Z,13.93
2018-02-23T17:03:19.869Z,14.17
2018-02-23T17:05:48.147Z,13.57
2018-02-23T17:08:16.383Z,14.43
2018-02-23T17:10:45.431Z,14.20
2018-02-23T17:13:13.695Z,12.87
2018-02-23T17:15:41.976Z,16.10
2018-02-23T17:18:10.311Z,14.03
2018-02-23T17:20:38.579Z,40.00
2018-02-23T17:23:07.601Z,24.67
2018-02-23T17:25:36.028Z,19.83
2018-02-23T17:28:05.257Z,23.43
2018-02-23T17:30:33.603Z,32.47
2018-02-23T17:33:01.981Z,37.07
2018-02-23T17:35:30.283Z,17.33
2018-02-23T17:37:59.354Z,22.87
2018-02-23T17:40:27.644Z,33.13
2018-02-23T17:42:56.670Z,23.23
2018-02-23T17:45:24.912Z,14.67
2018-02-23T17:47:53.957Z,24.37
2018-02-23T17:50:22.348Z,18.27
2018-02-23T17:52:50.564Z,16.30
2018-02-23T17:55:19.607Z,15.93
2018-02-23T17:57:49.398Z,18.10
2018-02-23T18:00:17.674Z,15.73
2018-02-23T18:02:46.857Z,13.40
2018-02-23T18:05:15.886Z,15.43
2018-02-23T18:07:44.187Z,15.30
2018-02-23T18:10:13.375Z,23.63
2018-02-23T18:12:42.464Z,18.63
2018-02-23T18:15:10.718Z,15.30
2018-02-23T18:17:39.026Z,21.60
2018-02-23T18:20:07.603Z,15.57
2018-02-23T18:22:36.182Z,15.80
2018-02-23T18:25:04.453Z,15.90
2018-02-23T18:27:32.762Z,17.63
2018-02-23T18:30:01.777Z,17.03
2018-02-23T18:32:30.035Z,14.03
2018-02-23T18:34:58.297Z,23.07
2018-02-23T18:37:27.365Z,23.63
2018-02-23T18:39:55.646Z,16.23
2018-02-23T18:42:24.751Z,14.97
2018-02-23T18:44:53.799Z,17.40
2018-02-23T18:47:22.083Z,21.20
2018-02-23T18:49:50.614Z,19.47
2018-02-23T18:52:19.034Z,32.37
2018-02-23T18:54:47.362Z,32.00
2018-02-23T18:57:15.655Z,20.23
2018-02-23T18:59:44.009Z,29.27
2018-02-23T19:02:13.038Z,17.37
2018-02-23T19:04:41.311Z,41.43
2018-02-23T19:07:10.404Z,21.13
2018-02-23T19:09:38.701Z,42.20
2018-02-23T19:12:06.955Z,16.70
2018-02-23T19:14:35.235Z,29.17
2018-02-23T19:17:03.574Z,31.30
2018-02-23T19:19:31.868Z,32.17
2018-02-23T19:22:01.060Z,34.27
2018-02-23T19:24:29.341Z,23.90
2018-02-23T19:26:57.575Z,15.63
2018-02-23T19:29:25.826Z,16.23
2018-02-23T19:31:54.309Z,22.33
2018-02-23T19:34:22.584Z,17.03
2018-02-23T19:36:50.876Z,21.23
2018-02-23T19:39:19.144Z,18.00
2018-02-23T19:41:47.417Z,22.23
2018-02-23T19:44:15.690Z,17.77
2018-02-23T19:46:44.073Z,17.80
2018-02-23T19:49:13.862Z,21.83
2018-02-23T19:51:42.219Z,18.73
2018-02-23T19:54:10.439Z,20.07
2018-02-23T19:56:38.720Z,18.70
2018-02-23T19:59:07.759Z,18.83
2018-02-23T20:01:36.001Z,19.20
2018-02-23T20:04:04.461Z,16.17
2018-02-23T20:06:33.556Z,18.33
2018-02-23T20:09:02.584Z,19.63
2018-02-23T20:11:30.856Z,19.93
2018-02-23T20:13:59.126Z,18.83
2018-02-23T20:16:27.421Z,20.27
2018-02-23T20:18:55.703Z,20.00
2018-02-23T20:21:23.999Z,20.73
2018-02-23T20:23:53.100Z,19.87
2018-02-23T20:26:21.352Z,16.93
2018-02-23T20:28:49.653Z,18.43
2018-02-23T20:31:17.934Z,18.10
2018-02-23T20:33:46.212Z,19.73
2018-02-23T20:36:14.492Z,21.47
2018-02-23T20:38:43.539Z,19.40
2018-02-23T20:41:11.807Z,22.13
2018-02-23T20:43:40.144Z,19.73
2018-02-23T20:46:08.391Z,18.83
2018-02-23T20:48:36.670Z,18.97
2018-02-23T20:51:05.127Z,19.47
2018-02-23T20:53:33.391Z,20.57
2018-02-23T20:56:01.687Z,16.87
2018-02-23T20:58:30.061Z,19.23
2018-02-23T21:00:58.600Z,18.97
2018-02-23T21:03:26.880Z,18.43
2018-02-23T21:05:55.139Z,21.17
2018-02-23T21:08:24.259Z,18.60
2018-02-23T21:10:52.555Z,18.37
2018-02-23T21:13:20.893Z,17.07
2018-02-23T21:15:49.924Z,20.43
2018-02-23T21:18:18.358Z,19.50
2018-02-23T21:20:46.819Z,19.10
2018-02-23T21:23:15.128Z,18.87
2018-02-23T21:25:43.388Z,22.57
2018-02-23T21:28:11.681Z,17.40
2018-02-23T21:30:39.948Z,19.70
2018-02-23T21:33:08.997Z,15.63
2018-02-23T21:35:37.284Z,20.30
2018-02-23T21:38:06.502Z,19.60
2018-02-23T21:40:35.533Z,20.60
2018-02-23T21:43:03.819Z,18.70
2018-02-23T21:45:32.045Z,18.87
2018-02-23T21:48:00.349Z,18.23
2018-02-23T21:50:28.908Z,20.97
2018-02-23T21:52:57.975Z,20.17
2018-02-23T21:55:27.074Z,17.47
2018-02-23T21:57:55.352Z,20.40
2018-02-23T22:00:24.420Z,18.33
2018-02-23T22:02:52.676Z,17.33
2018-02-23T22:05:21.001Z,18.07
2018-02-23T22:07:49.269Z,18.53
2018-02-23T22:10:18.465Z,19.17
2018-02-23T22:12:47.516Z,18.73
2018-02-23T22:15:15.915Z,17.10
2018-02-23T22:17:44.213Z,18.70
2018-02-23T22:20:13.265Z,20.03
2018-02-23T22:22:41.624Z,18.07
2018-02-23T22:25:10.715Z,21.07
2018-02-23T22:27:39.195Z,19.40
2018-02-23T22:30:07.476Z,20.63
2018-02-23T22:32:35.753Z,19.57
2018-02-23T22:35:04.021Z,19.37
2018-02-23T22:37:32.362Z,17.30
2018-02-23T22:40:01.469Z,22.27
2018-02-23T22:42:29.811Z,21.07
2018-02-23T22:44:58.514Z,18.67
2018-02-23T22:47:31.836Z,22.27
2018-02-23T22:50:00.132Z,22.17
2018-02-23T22:52:28.433Z,20.77
2018-02-23T22:54:56.711Z,23.50
2018-02-23T22:57:25.043Z,19.20
2018-02-23T22:59:53.314Z,17.83
2018-02-23T23:02:21.811Z,19.07
2018-02-23T23:04:50.147Z,20.30
2018-02-23T23:07:19.358Z,19.70
2018-02-23T23:09:47.664Z,21.73
2018-02-23T23:12:15.935Z,19.60
2018-02-23T23:14:44.206Z,19.40
2018-02-23T23:17:12.597Z,20.23
2018-02-23T23:19:40.883Z,18.37
2018-02-23T23:22:09.258Z,20.47
2018-02-23T23:24:37.555Z,21.87
2018-02-23T23:27:05.808Z,20.63
2018-02-23T23:29:34.098Z,20.33
2018-02-23T23:32:02.364Z,24.93
2018-02-23T23:34:30.755Z,18.97
2018-02-23T23:36:59.148Z,20.37
2018-02-23T23:39:30.824Z,17.77
2018-02-23T23:41:59.139Z,22.93
2018-02-23T23:44:27.382Z,28.50
2018-02-23T23:46:55.653Z,20.77
2018-02-23T23:49:24.050Z,21.13
2018-02-23T23:51:52.339Z,22.20
2018-02-23T23:54:20.623Z,20.20
2018-02-23T23:56:48.905Z,19.20
2018-02-23T23:59:17.258Z,21.33
